createdAt,value
2018-01-28T00:00:14.097Z,102534.59
2018-01-28T00:00:37.350Z,102535.95
2018-01-28T00:01:01.111Z,102538.61
2018-01-28T00:01:24.996Z,102529.84
2018-01-28T00:01:48.573Z,102529.84
2018-01-28T00:02:12.127Z,102531.66
2018-01-28T00:02:35.965Z,102534.30
2018-01-28T00:02:59.461Z,102532.13
2018-01-28T00:03:23.239Z,102533.94
2018-01-28T00:03:46.982Z,102540.60
2018-01-28T00:04:10.996Z,102535.77
2018-01-28T00:04:35.011Z,102535.80
2018-01-28T00:04:58.775Z,102529.22
2018-01-28T00:05:22.315Z,102534.52
2018-01-28T00:05:46.079Z,102536.81
2018-01-28T00:06:09.655Z,102544.77
2018-01-28T00:06:33.391Z,102546.12
2018-01-28T00:06:57.160Z,102542.66
2018-01-28T00:07:20.891Z,102537.42
2018-01-28T00:07:44.295Z,102548.05
2018-01-28T00:08:08.025Z,102545.46
2018-01-28T00:08:31.751Z,102547.75
2018-01-28T00:08:55.483Z,102543.41
2018-01-28T00:09:19.210Z,102544.80
2018-01-28T00:09:42.933Z,102543.09
2018-01-28T00:10:06.679Z,102544.95
2018-01-28T00:10:30.423Z,102541.93
2018-01-28T00:10:53.862Z,102546.42
2018-01-28T00:11:17.599Z,102545.16
2018-01-28T00:11:41.400Z,102549.17
2018-01-28T00:12:04.853Z,102546.13
2018-01-28T00:12:28.431Z,102546.14
2018-01-28T00:12:52.292Z,102548.81
2018-01-28T00:13:15.561Z,102544.91
2018-01-28T00:13:39.104Z,102553.27
2018-01-28T00:14:02.855Z,102556.36
2018-01-28T00:14:26.589Z,102551.53
2018-01-28T00:14:50.317Z,102537.89
2018-01-28T00:15:13.586Z,102544.52
2018-01-28T00:15:37.140Z,102548.50
2018-01-28T00:16:00.600Z,102551.58
2018-01-28T00:16:24.147Z,102539.74
2018-01-28T00:16:47.967Z,102536.23
2018-01-28T00:17:11.238Z,102542.87
2018-01-28T00:17:34.774Z,102537.15
2018-01-28T00:17:58.309Z,102547.77
2018-01-28T00:18:21.941Z,102541.22
2018-01-28T00:18:45.774Z,102536.84
2018-01-28T00:19:09.577Z,102542.61
2018-01-28T00:19:33.339Z,102539.13
2018-01-28T00:19:57.080Z,102533.88
2018-01-28T00:20:20.807Z,102531.69
2018-01-28T00:20:44.119Z,102536.10
2018-01-28T00:21:07.844Z,102533.94
2018-01-28T00:21:31.847Z,102534.00
2018-01-28T00:21:55.673Z,102534.91
2018-01-28T00:22:19.720Z,102530.99
2018-01-28T00:22:43.749Z,102526.14
2018-01-28T00:23:07.241Z,102528.84
2018-01-28T00:23:30.993Z,102528.84
2018-01-28T00:23:54.715Z,102533.25
2018-01-28T00:24:18.461Z,102525.33
2018-01-28T00:24:41.891Z,102528.41
2018-01-28T00:25:05.631Z,102528.84
2018-01-28T00:25:29.380Z,102527.95
2018-01-28T00:25:53.320Z,102530.16
2018-01-28T00:26:17.899Z,102524.44
2018-01-28T00:26:41.722Z,102524.44
2018-01-28T00:27:05.455Z,102523.98
2018-01-28T00:27:28.935Z,102525.70
2018-01-28T00:27:52.763Z,102524.38
2018-01-28T00:28:16.485Z,102522.61
2018-01-28T00:28:40.224Z,102523.02
2018-01-28T00:29:04.345Z,102523.91
2018-01-28T00:29:28.085Z,102526.52
2018-01-28T00:29:51.855Z,102521.24
2018-01-28T00:30:15.597Z,102520.81
2018-01-28T00:30:39.344Z,102519.03
2018-01-28T00:31:03.123Z,102515.94
2018-01-28T00:31:27.468Z,102513.72
2018-01-28T00:31:51.187Z,102518.09
2018-01-28T00:32:14.979Z,102517.63
2018-01-28T00:32:38.968Z,102522.48
2018-01-28T00:33:02.308Z,102518.50
2018-01-28T00:33:26.084Z,102509.25
2018-01-28T00:33:49.868Z,102516.72
2018-01-28T00:34:13.917Z,102510.12
2018-01-28T00:34:37.935Z,102514.94
2018-01-28T00:35:01.662Z,102513.19
2018-01-28T00:35:25.391Z,102510.55
2018-01-28T00:35:49.127Z,102517.61
2018-01-28T00:36:12.863Z,102514.56
2018-01-28T00:36:36.599Z,102512.41
2018-01-28T00:36:59.683Z,102515.50
2018-01-28T00:37:24.058Z,102519.92
2018-01-28T00:37:47.843Z,102513.34
2018-01-28T00:38:11.637Z,102514.66
2018-01-28T00:38:35.379Z,102514.66
2018-01-28T00:38:59.094Z,102518.64
2018-01-28T00:39:22.847Z,102510.70
2018-01-28T00:39:46.795Z,102515.98
2018-01-28T00:40:10.262Z,102515.09
2018-01-28T00:40:33.987Z,102518.17
2018-01-28T00:40:57.717Z,102519.48
2018-01-28T00:41:21.112Z,102516.39
2018-01-28T00:41:44.863Z,102518.59
2018-01-28T00:42:08.656Z,102519.89
2018-01-28T00:42:32.473Z,102517.69
2018-01-28T00:42:56.238Z,102518.09
2018-01-28T00:43:20.248Z,102513.67
2018-01-28T00:43:43.993Z,102519.81
2018-01-28T00:44:07.815Z,102513.19
2018-01-28T00:44:31.563Z,102518.05
2018-01-28T00:44:55.302Z,102514.97
2018-01-28T00:45:19.043Z,102518.91
2018-01-28T00:45:43.142Z,102517.16
2018-01-28T00:46:07.527Z,102521.11
2018-01-28T00:46:31.269Z,102515.42
2018-01-28T00:46:55.005Z,102511.91
2018-01-28T00:47:18.778Z,102508.39
2018-01-28T00:47:42.245Z,102511.08
2018-01-28T00:48:06.041Z,102511.08
2018-01-28T00:48:29.834Z,102508.03
2018-01-28T00:48:53.858Z,102515.07
2018-01-28T00:49:17.612Z,102516.87
2018-01-28T00:49:41.107Z,102514.23
2018-01-28T00:50:04.483Z,102512.47
2018-01-28T00:50:28.228Z,102508.94
2018-01-28T00:50:51.657Z,102508.52
2018-01-28T00:51:15.725Z,102514.23
2018-01-28T00:51:39.489Z,102513.34
2018-01-28T00:52:03.523Z,102512.45
2018-01-28T00:52:27.114Z,102509.81
2018-01-28T00:52:50.853Z,102509.38
2018-01-28T00:53:14.609Z,102505.84
2018-01-28T00:53:38.364Z,102501.88
2018-01-28T00:54:02.385Z,102504.98
2018-01-28T00:54:26.419Z,102504.12
2018-01-28T00:54:50.183Z,102499.80
2018-01-28T00:55:13.637Z,102501.58
2018-01-28T00:55:37.394Z,102499.84
2018-01-28T00:56:01.136Z,102497.66
2018-01-28T00:56:25.161Z,102490.66
2018-01-28T00:56:48.843Z,102495.97
2018-01-28T00:57:12.599Z,102489.81
2018-01-28T00:57:36.322Z,102491.14
2018-01-28T00:58:00.071Z,102489.38
2018-01-28T00:58:24.076Z,102492.45
2018-01-28T00:58:47.535Z,102493.34
2018-01-28T00:59:11.323Z,102493.78
2018-01-28T00:59:35.057Z,102485.40
2018-01-28T00:59:58.800Z,102486.27
2018-01-28T01:00:22.263Z,102480.09
2018-01-28T01:00:46.011Z,102483.56
2018-01-28T01:01:09.798Z,102481.36
2018-01-28T01:01:33.120Z,102478.72
2018-01-28T01:01:56.848Z,102486.64
2018-01-28T01:02:20.587Z,102487.07
2018-01-28T01:02:44.062Z,102480.49
2018-01-28T01:03:07.806Z,102485.77
2018-01-28T01:03:31.591Z,102483.56
2018-01-28T01:03:55.616Z,102488.84
2018-01-28T01:04:19.732Z,102485.77
2018-01-28T01:04:43.489Z,102490.60
2018-01-28T01:05:07.504Z,102487.95
2018-01-28T01:05:31.585Z,102486.64
2018-01-28T01:05:55.358Z,102485.75
2018-01-28T01:06:18.806Z,102486.19
2018-01-28T01:06:42.529Z,102486.62
2018-01-28T01:07:06.263Z,102488.80
2018-01-28T01:07:29.707Z,102484.86
2018-01-28T01:07:53.474Z,102487.50
2018-01-28T01:08:17.286Z,102481.81
2018-01-28T01:08:40.991Z,102486.70
2018-01-28T01:09:03.845Z,102481.87
2018-01-28T01:09:27.618Z,102480.57
2018-01-28T01:09:51.345Z,102473.08
2018-01-28T01:10:15.076Z,102484.08
2018-01-28T01:10:39.099Z,102473.94
2018-01-28T01:11:03.119Z,102470.87
2018-01-28T01:11:27.146Z,102477.05
2018-01-28T01:11:50.939Z,102475.74
2018-01-28T01:12:14.383Z,102477.06
2018-01-28T01:12:38.108Z,102477.05
2018-01-28T01:13:01.159Z,102473.97
2018-01-28T01:13:24.920Z,102475.29
2018-01-28T01:13:48.971Z,102472.65
2018-01-28T01:14:12.733Z,102465.61
2018-01-28T01:14:36.191Z,102473.52
2018-01-28T01:14:59.912Z,102473.89
2018-01-28T01:15:23.689Z,102470.79
2018-01-28T01:15:47.697Z,102469.02
2018-01-28T01:16:11.719Z,102475.16
2018-01-28T01:16:35.156Z,102473.41
2018-01-28T01:16:58.907Z,102472.06
2018-01-28T01:17:22.666Z,102477.34
2018-01-28T01:17:46.440Z,102472.95
2018-01-28T01:18:09.896Z,102483.09
2018-01-28T01:18:33.631Z,102479.55
2018-01-28T01:18:57.461Z,102479.53
2018-01-28T01:19:21.480Z,102479.97
2018-01-28T01:19:44.915Z,102473.36
2018-01-28T01:20:08.655Z,102475.95
2018-01-28T01:20:32.391Z,102474.17
2018-01-28T01:20:55.831Z,102480.77
2018-01-28T01:21:19.557Z,102481.20
2018-01-28T01:21:42.923Z,102478.13
2018-01-28T01:22:06.647Z,102483.41
2018-01-28T01:22:30.375Z,102482.98
2018-01-28T01:22:54.119Z,102482.55
2018-01-28T01:23:18.156Z,102479.97
2018-01-28T01:23:42.169Z,102481.28
2018-01-28T01:24:05.935Z,102483.44
2018-01-28T01:24:29.672Z,102475.06
2018-01-28T01:24:53.430Z,102482.09
2018-01-28T01:25:17.190Z,102479.02
2018-01-28T01:25:40.944Z,102483.83
2018-01-28T01:26:04.632Z,102481.19
2018-01-28T01:26:28.356Z,102486.44
2018-01-28T01:26:52.108Z,102480.70
2018-01-28T01:27:15.915Z,102492.53
2018-01-28T01:27:39.358Z,102484.16
2018-01-28T01:28:03.083Z,102481.08
2018-01-28T01:28:26.839Z,102488.55
2018-01-28T01:28:50.644Z,102488.55
2018-01-28T01:29:13.449Z,102493.81
2018-01-28T01:29:37.213Z,102486.77
2018-01-28T01:30:00.945Z,102488.52
2018-01-28T01:30:24.681Z,102483.23
2018-01-28T01:30:48.125Z,102492.92
2018-01-28T01:31:11.916Z,102492.89
2018-01-28T01:31:35.678Z,102491.97
2018-01-28T01:31:59.423Z,102488.44
2018-01-28T01:32:23.456Z,102491.06
2018-01-28T01:32:47.461Z,102497.64
2018-01-28T01:33:11.477Z,102495.44
2018-01-28T01:33:35.215Z,102490.15
2018-01-28T01:33:58.940Z,102494.55
2018-01-28T01:34:22.697Z,102489.69
2018-01-28T01:34:46.446Z,102492.71
2018-01-28T01:35:10.210Z,102492.25
2018-01-28T01:35:34.236Z,102493.55
2018-01-28T01:35:58.260Z,102493.53
2018-01-28T01:36:21.710Z,102490.86
2018-01-28T01:36:45.431Z,102492.58
2018-01-28T01:37:09.158Z,102489.05
2018-01-28T01:37:33.246Z,102493.45
2018-01-28T01:37:56.979Z,102489.45
2018-01-28T01:38:20.424Z,102494.72
2018-01-28T01:38:44.159Z,102492.94
2018-01-28T01:39:07.931Z,102498.66
2018-01-28T01:39:31.999Z,102490.25
2018-01-28T01:39:56.005Z,102499.02
2018-01-28T01:40:19.861Z,102497.67
2018-01-28T01:40:43.882Z,102502.93
2018-01-28T01:41:07.899Z,102505.08
2018-01-28T01:41:31.338Z,102504.63
2018-01-28T01:41:55.064Z,102496.23
2018-01-28T01:42:18.794Z,102502.83
2018-01-28T01:42:42.240Z,102502.80
2018-01-28T01:43:06.035Z,102501.91
2018-01-28T01:43:29.796Z,102511.56
2018-01-28T01:43:53.546Z,102504.50
2018-01-28T01:44:17.035Z,102509.33
2018-01-28T01:44:40.817Z,102507.55
2018-01-28T01:45:03.843Z,102511.52
2018-01-28T01:45:27.617Z,102505.34
2018-01-28T01:45:51.367Z,102513.24
2018-01-28T01:46:15.390Z,102510.16
2018-01-28T01:46:39.413Z,102511.41
2018-01-28T01:47:03.417Z,102519.77
2018-01-28T01:47:26.461Z,102517.13
2018-01-28T01:47:50.196Z,102516.21
2018-01-28T01:48:13.645Z,102518.86
2018-01-28T01:48:37.376Z,102517.08
2018-01-28T01:49:02.033Z,102519.70
2018-01-28T01:49:32.737Z,102522.34
2018-01-28T01:49:56.503Z,102525.36
2018-01-28T01:50:20.243Z,102526.66
2018-01-28T01:50:43.973Z,102524.45
2018-01-28T01:51:07.422Z,102521.34
2018-01-28T01:51:31.159Z,102526.61
2018-01-28T01:51:54.893Z,102520.83
2018-01-28T01:52:18.328Z,102523.02
2018-01-28T01:52:42.076Z,102528.72
2018-01-28T01:53:05.827Z,102525.61
2018-01-28T01:53:29.508Z,102527.82
2018-01-28T01:53:53.270Z,102529.13
2018-01-28T01:54:16.667Z,102522.97
2018-01-28T01:54:40.204Z,102525.16
2018-01-28T01:55:04.168Z,102526.42
2018-01-28T01:55:27.926Z,102521.13
2018-01-28T01:55:51.652Z,102515.83
2018-01-28T01:56:15.687Z,102521.55
2018-01-28T01:56:39.429Z,102518.44
2018-01-28T01:57:03.167Z,102517.55
2018-01-28T01:57:26.064Z,102520.63
2018-01-28T01:57:49.795Z,102513.59
2018-01-28T01:58:13.536Z,102518.42
2018-01-28T01:58:37.263Z,102516.64
2018-01-28T01:59:00.989Z,102515.77
2018-01-28T01:59:24.755Z,102524.16
2018-01-28T01:59:48.503Z,102521.52
2018-01-28T02:00:12.268Z,102521.09
2018-01-28T02:00:36.297Z,102520.63
2018-01-28T02:01:00.553Z,102514.45
2018-01-28T02:01:24.312Z,102521.92
2018-01-28T02:01:48.056Z,102521.92
2018-01-28T02:02:11.516Z,102516.58
2018-01-28T02:02:35.263Z,102516.58
2018-01-28T02:02:59.013Z,102514.39
2018-01-28T02:03:23.064Z,102508.66
2018-01-28T02:03:47.117Z,102510.38
2018-01-28T02:04:10.860Z,102520.52
2018-01-28T02:04:34.306Z,102524.03
2018-01-28T02:04:58.049Z,102513.44
2018-01-28T02:05:21.883Z,102502.42
2018-01-28T02:05:45.907Z,102509.90
2018-01-28T02:06:09.850Z,102513.38
2018-01-28T02:06:33.875Z,102509.90
2018-01-28T02:06:57.264Z,102509.47
2018-01-28T02:07:21.058Z,102505.07
2018-01-28T02:07:44.849Z,102516.08
2018-01-28T02:08:08.601Z,102505.50
2018-01-28T02:08:32.692Z,102501.53
2018-01-28T02:08:56.132Z,102504.61
2018-01-28T02:09:19.864Z,102513.81
2018-01-28T02:09:43.639Z,102493.98
2018-01-28T02:10:07.389Z,102501.48
2018-01-28T02:10:30.268Z,102491.83
2018-01-28T02:10:54.012Z,102501.45
2018-01-28T02:11:17.789Z,102500.13
2018-01-28T02:11:41.524Z,102497.92
2018-01-28T02:12:05.261Z,102502.77
2018-01-28T02:12:29.359Z,102497.48
2018-01-28T02:12:53.400Z,102499.24
2018-01-28T02:13:17.141Z,102504.08
2018-01-28T02:13:40.592Z,102505.39
2018-01-28T02:14:04.329Z,102496.58
2018-01-28T02:14:27.768Z,102497.89
2018-01-28T02:14:51.496Z,102501.86
2018-01-28T02:15:15.265Z,102493.47
2018-01-28T02:15:39.049Z,102494.34
2018-01-28T02:16:03.078Z,102500.95
2018-01-28T02:16:27.113Z,102495.23
2018-01-28T02:16:50.856Z,102500.52
2018-01-28T02:17:14.312Z,102489.94
2018-01-28T02:17:38.084Z,102487.75
2018-01-28T02:18:01.832Z,102490.38
2018-01-28T02:18:25.885Z,102489.48
2018-01-28T02:18:49.889Z,102491.27
2018-01-28T02:19:13.663Z,102479.73
2018-01-28T02:19:36.812Z,102489.88
2018-01-28T02:20:00.251Z,102488.11
2018-01-28T02:20:23.673Z,102485.03
2018-01-28T02:20:47.040Z,102488.97
2018-01-28T02:21:10.772Z,102486.76
2018-01-28T02:21:34.552Z,102492.02
2018-01-28T02:21:57.876Z,102492.02
2018-01-28T02:22:21.246Z,102483.20
2018-01-28T02:22:45.020Z,102487.54
2018-01-28T02:23:08.407Z,102491.56
2018-01-28T02:23:32.463Z,102487.97
2018-01-28T02:23:56.475Z,102480.47
2018-01-28T02:24:19.931Z,102488.83
2018-01-28T02:24:43.666Z,102489.70
2018-01-28T02:25:07.414Z,102495.42
2018-01-28T02:25:31.140Z,102497.17
2018-01-28T02:25:54.921Z,102484.82
2018-01-28T02:26:18.653Z,102494.07
2018-01-28T02:26:42.449Z,102491.43
2018-01-28T02:27:06.181Z,102489.65
2018-01-28T02:27:30.216Z,102493.56
2018-01-28T02:27:53.963Z,102494.94
2018-01-28T02:28:17.465Z,102501.06
2018-01-28T02:28:40.847Z,102497.09
2018-01-28T02:29:04.580Z,102496.63
2018-01-28T02:29:28.324Z,102496.63
2018-01-28T02:29:52.091Z,102497.95
2018-01-28T02:30:15.160Z,102497.50
2018-01-28T02:30:38.903Z,102500.58
2018-01-28T02:31:02.942Z,102502.33
2018-01-28T02:31:26.404Z,102500.55
2018-01-28T02:31:50.265Z,102499.66
2018-01-28T02:32:13.666Z,102494.37
2018-01-28T02:32:37.396Z,102503.17
2018-01-28T02:33:01.137Z,102495.67
2018-01-28T02:33:24.876Z,102503.11
2018-01-28T02:33:48.632Z,102496.50
2018-01-28T02:34:12.755Z,102495.16
2018-01-28T02:34:36.631Z,102498.23
2018-01-28T02:35:00.679Z,102499.09
2018-01-28T02:35:24.432Z,102499.09
2018-01-28T02:35:47.885Z,102497.34
2018-01-28T02:36:11.643Z,102503.47
2018-01-28T02:36:35.379Z,102497.75
2018-01-28T02:36:58.820Z,102500.39
2018-01-28T02:37:22.578Z,102500.83
2018-01-28T02:37:46.355Z,102496.42
2018-01-28T02:38:10.357Z,102494.67
2018-01-28T02:38:34.467Z,102501.28
2018-01-28T02:38:58.200Z,102494.67
2018-01-28T02:39:21.643Z,102496.45
2018-01-28T02:39:45.395Z,102501.25
2018-01-28T02:40:09.159Z,102503.92
2018-01-28T02:40:33.220Z,102495.56
2018-01-28T02:40:57.245Z,102499.52
2018-01-28T02:41:21.020Z,102498.20
2018-01-28T02:41:44.452Z,102490.70
2018-01-28T02:42:08.211Z,102495.97
2018-01-28T02:42:32.000Z,102493.32
2018-01-28T02:42:56.023Z,102497.69
2018-01-28T02:43:20.037Z,102500.77
2018-01-28T02:43:43.493Z,102498.09
2018-01-28T02:44:07.236Z,102496.77
2018-01-28T02:44:30.959Z,102485.73
2018-01-28T02:44:54.689Z,102497.64
2018-01-28T02:45:18.435Z,102500.69
2018-01-28T02:45:42.186Z,102491.00
2018-01-28T02:46:05.975Z,102497.16
2018-01-28T02:46:29.732Z,102499.31
2018-01-28T02:46:53.758Z,102498.42
2018-01-28T02:47:17.191Z,102494.02
2018-01-28T02:47:40.909Z,102497.09
2018-01-28T02:48:04.634Z,102498.85
2018-01-28T02:48:28.643Z,102494.89
2018-01-28T02:48:52.098Z,102493.10
2018-01-28T02:49:15.828Z,102496.20
2018-01-28T02:49:39.571Z,102494.86
2018-01-28T02:50:03.328Z,102497.94
2018-01-28T02:50:27.064Z,102499.23
2018-01-28T02:50:50.835Z,102496.12
2018-01-28T02:51:14.585Z,102503.55
2018-01-28T02:51:37.656Z,102502.66
2018-01-28T02:52:01.379Z,102496.48
2018-01-28T02:52:25.400Z,102496.45
2018-01-28T02:52:49.162Z,102496.88
2018-01-28T02:53:12.615Z,102495.99
2018-01-28T02:53:36.389Z,102499.45
2018-01-28T02:54:00.329Z,102495.48
2018-01-28T02:54:23.414Z,102501.63
2018-01-28T02:54:47.151Z,102498.98
2018-01-28T02:55:11.001Z,102495.43
2018-01-28T02:55:34.441Z,102492.78
2018-01-28T02:55:58.162Z,102504.66
2018-01-28T02:56:21.904Z,102496.23
2018-01-28T02:56:45.467Z,102493.99
2018-01-28T02:57:09.199Z,102503.28
2018-01-28T02:57:32.921Z,102494.89
2018-01-28T02:57:56.943Z,102512.52
2018-01-28T02:58:20.980Z,102498.42
2018-01-28T02:58:44.720Z,102497.07
2018-01-28T02:59:08.151Z,102495.75
2018-01-28T02:59:31.895Z,102494.86
2018-01-28T02:59:55.656Z,102497.50
2018-01-28T03:00:19.098Z,102496.61
2018-01-28T03:00:42.821Z,102490.45
2018-01-28T03:01:06.634Z,102490.00
2018-01-28T03:01:30.686Z,102497.48
2018-01-28T03:01:54.706Z,102496.16
2018-01-28T03:02:18.477Z,102492.19
2018-01-28T03:02:41.576Z,102496.16
2018-01-28T03:03:05.110Z,102489.92
2018-01-28T03:03:28.865Z,102500.09
2018-01-28T03:03:52.618Z,102493.05
2018-01-28T03:04:16.374Z,102495.70
2018-01-28T03:04:40.190Z,102491.67
2018-01-28T03:05:03.568Z,102489.45
2018-01-28T03:05:27.291Z,102486.44
2018-01-28T03:05:50.775Z,102486.44
2018-01-28T03:06:14.549Z,102488.66
2018-01-28T03:06:38.339Z,102487.36
2018-01-28T03:07:02.383Z,102485.12
2018-01-28T03:07:26.188Z,102489.11
2018-01-28T03:07:50.212Z,102485.20
2018-01-28T03:08:14.248Z,102488.70
2018-01-28T03:08:37.747Z,102486.09
2018-01-28T03:09:01.474Z,102490.94
2018-01-28T03:09:24.919Z,102484.33
2018-01-28T03:09:48.655Z,102481.28
2018-01-28T03:10:12.383Z,102479.47
2018-01-28T03:10:36.132Z,102478.58
2018-01-28T03:10:59.878Z,102479.91
2018-01-28T03:11:23.334Z,102479.05
2018-01-28T03:11:47.135Z,102476.00
2018-01-28T03:12:10.901Z,102479.10
2018-01-28T03:12:34.917Z,102482.20
2018-01-28T03:12:58.631Z,102474.27
2018-01-28T03:13:23.056Z,102473.84
2018-01-28T03:13:46.788Z,102478.72
2018-01-28T03:14:10.816Z,102472.11
2018-01-28T03:14:34.841Z,102473.45
2018-01-28T03:14:58.627Z,102477.86
2018-01-28T03:15:22.080Z,102473.45
2018-01-28T03:15:45.803Z,102480.07
2018-01-28T03:16:08.832Z,102477.42
2018-01-28T03:16:32.305Z,102486.28
2018-01-28T03:16:56.039Z,102484.03
2018-01-28T03:17:19.869Z,102486.68
2018-01-28T03:17:43.705Z,102482.31
2018-01-28T03:18:07.455Z,102485.88
2018-01-28T03:18:31.471Z,102480.56
2018-01-28T03:18:55.478Z,102485.41
2018-01-28T03:19:19.549Z,102484.98
2018-01-28T03:19:43.302Z,102479.70
2018-01-28T03:20:06.783Z,102479.23
2018-01-28T03:20:30.536Z,102480.56
2018-01-28T03:20:54.281Z,102469.12
2018-01-28T03:21:18.291Z,102483.64
2018-01-28T03:21:41.615Z,102476.10
2018-01-28T03:22:04.977Z,102477.03
2018-01-28T03:22:28.731Z,102481.39
2018-01-28T03:22:52.560Z,102473.00
2018-01-28T03:23:16.292Z,102476.08
2018-01-28T03:23:39.726Z,102475.19
2018-01-28T03:24:03.450Z,102476.51
2018-01-28T03:24:27.257Z,102475.16
2018-01-28T03:24:51.037Z,102476.48
2018-01-28T03:25:14.476Z,102473.41
2018-01-28T03:25:38.223Z,102477.37
2018-01-28T03:26:01.960Z,102480.87
2018-01-28T03:26:25.446Z,102486.14
2018-01-28T03:26:49.179Z,102477.78
2018-01-28T03:27:12.936Z,102485.66
2018-01-28T03:27:36.980Z,102486.14
2018-01-28T03:28:01.062Z,102489.22
2018-01-28T03:28:24.814Z,102490.05
2018-01-28T03:28:48.253Z,102492.70
2018-01-28T03:29:12.000Z,102487.41
2018-01-28T03:29:35.719Z,102492.70
2018-01-28T03:29:59.477Z,102492.24
2018-01-28T03:30:23.234Z,102493.54
2018-01-28T03:30:46.854Z,102499.69
2018-01-28T03:31:10.673Z,102496.61
2018-01-28T03:31:34.258Z,102493.97
2018-01-28T03:31:58.020Z,102500.56
2018-01-28T03:32:21.611Z,102497.85
2018-01-28T03:32:44.875Z,102493.00
2018-01-28T03:33:08.470Z,102496.07
2018-01-28T03:33:32.001Z,102495.16
2018-01-28T03:33:55.669Z,102496.91
2018-01-28T03:34:19.554Z,102500.02
2018-01-28T03:34:43.392Z,102495.59
2018-01-28T03:35:06.959Z,102496.02
2018-01-28T03:35:30.714Z,102505.28
2018-01-28T03:35:54.472Z,102503.52
2018-01-28T03:36:18.287Z,102501.31
2018-01-28T03:36:41.825Z,102509.67
2018-01-28T03:37:05.443Z,102512.30
2018-01-28T03:37:29.592Z,102508.73
2018-01-28T03:37:53.361Z,102507.81
2018-01-28T03:38:17.407Z,102513.53
2018-01-28T03:38:40.846Z,102511.32
2018-01-28T03:39:03.688Z,102512.63
2018-01-28T03:39:27.416Z,102518.34
2018-01-28T03:39:51.156Z,102510.84
2018-01-28T03:40:14.603Z,102512.59
2018-01-28T03:40:38.497Z,102506.36
2018-01-28T03:41:02.228Z,102510.32
2018-01-28T03:41:25.667Z,102511.67
2018-01-28T03:41:49.394Z,102509.89
2018-01-28T03:42:13.115Z,102504.14
2018-01-28T03:42:37.119Z,102505.92
2018-01-28T03:43:01.183Z,102505.03
2018-01-28T03:43:24.939Z,102507.67
2018-01-28T03:43:48.961Z,102501.03
2018-01-28T03:44:12.969Z,102504.58
2018-01-28T03:44:36.972Z,102509.00
2018-01-28T03:45:00.983Z,102509.41
2018-01-28T03:45:24.744Z,102506.77
2018-01-28T03:45:48.505Z,102512.94
2018-01-28T03:46:12.219Z,102509.84
2018-01-28T03:46:36.428Z,102508.52
2018-01-28T03:47:00.191Z,102503.22
2018-01-28T03:47:23.925Z,102505.88
2018-01-28T03:47:47.668Z,102505.00
2018-01-28T03:48:11.168Z,102507.63
2018-01-28T03:48:34.960Z,102502.34
2018-01-28T03:48:58.705Z,102501.90
2018-01-28T03:49:22.167Z,102506.30
2018-01-28T03:49:45.891Z,102509.38
2018-01-28T03:50:09.621Z,102502.79
2018-01-28T03:50:33.623Z,102506.73
2018-01-28T03:50:57.431Z,102501.45
2018-01-28T03:51:20.872Z,102510.64
2018-01-28T03:51:44.584Z,102509.32
2018-01-28T03:52:08.322Z,102507.60
2018-01-28T03:52:32.032Z,102509.75
2018-01-28T03:52:55.816Z,102508.43
2018-01-28T03:53:18.889Z,102511.51
2018-01-28T03:53:42.621Z,102517.23
2018-01-28T03:54:06.405Z,102513.70
2018-01-28T03:54:30.165Z,102515.42
2018-01-28T03:54:53.888Z,102511.91
2018-01-28T03:55:17.610Z,102514.99
2018-01-28T03:55:41.347Z,102515.86
2018-01-28T03:56:04.766Z,102514.08
2018-01-28T03:56:28.508Z,102510.54
2018-01-28T03:56:52.399Z,102510.11
2018-01-28T03:57:16.144Z,102509.67
2018-01-28T03:57:40.223Z,102508.30
2018-01-28T03:58:03.972Z,102507.41
2018-01-28T03:58:27.535Z,102514.42
2018-01-28T03:58:51.261Z,102512.20
2018-01-28T03:59:14.987Z,102509.56
2018-01-28T03:59:39.041Z,102507.33
2018-01-28T04:00:03.047Z,102501.60
2018-01-28T04:00:26.488Z,102513.94
2018-01-28T04:00:50.220Z,102509.02
2018-01-28T04:01:13.943Z,102510.77
2018-01-28T04:01:37.963Z,102512.96
2018-01-28T04:02:01.398Z,102513.39
2018-01-28T04:02:25.186Z,102512.53
2018-01-28T04:02:48.966Z,102516.47
2018-01-28T04:03:12.723Z,102514.27
2018-01-28T04:03:36.772Z,102504.56
2018-01-28T04:04:00.792Z,102502.78
2018-01-28T04:04:24.569Z,102506.75
2018-01-28T04:04:48.079Z,102505.43
2018-01-28T04:05:11.816Z,102500.58
2018-01-28T04:05:35.560Z,102507.56
2018-01-28T04:05:59.580Z,102505.34
2018-01-28T04:06:23.584Z,102500.55
2018-01-28T04:06:47.596Z,102510.20
2018-01-28T04:07:11.338Z,102506.73
2018-01-28T04:07:34.384Z,102504.97
2018-01-28T04:07:58.427Z,102509.83
2018-01-28T04:08:22.506Z,102508.05
2018-01-28T04:08:46.368Z,102508.94
2018-01-28T04:09:10.389Z,102504.08
2018-01-28T04:09:34.394Z,102506.30
2018-01-28T04:09:58.140Z,102511.13
2018-01-28T04:10:21.879Z,102512.84
2018-01-28T04:10:45.601Z,102516.42
2018-01-28T04:11:09.358Z,102517.25
2018-01-28T04:11:33.118Z,102524.73
2018-01-28T04:11:57.141Z,102516.80
2018-01-28T04:12:21.160Z,102513.72
2018-01-28T04:12:45.195Z,102519.88
2018-01-28T04:13:08.927Z,102518.12
2018-01-28T04:13:32.423Z,102526.94
2018-01-28T04:13:56.333Z,102521.20
2018-01-28T04:14:20.096Z,102521.71
2018-01-28T04:14:43.847Z,102522.11
2018-01-28T04:15:07.296Z,102523.44
2018-01-28T04:15:31.031Z,102524.36
2018-01-28T04:15:54.766Z,102525.25
2018-01-28T04:16:17.524Z,102527.03
2018-01-28T04:16:41.250Z,102521.28
2018-01-28T04:17:04.995Z,102526.16
2018-01-28T04:17:28.751Z,102524.36
2018-01-28T04:17:52.777Z,102520.39
2018-01-28T04:18:16.840Z,102518.63
2018-01-28T04:18:40.646Z,102520.79
2018-01-28T04:19:04.149Z,102520.39
2018-01-28T04:19:27.922Z,102516.82
2018-01-28T04:19:51.661Z,102521.66
2018-01-28T04:20:15.677Z,102517.66
2018-01-28T04:20:39.139Z,102511.50
2018-01-28T04:21:02.863Z,102517.66
2018-01-28T04:21:26.594Z,102513.26
2018-01-28T04:21:50.033Z,102513.23
2018-01-28T04:22:13.794Z,102518.52
2018-01-28T04:22:37.526Z,102520.71
2018-01-28T04:23:00.965Z,102524.22
2018-01-28T04:23:24.746Z,102519.39
2018-01-28T04:23:48.542Z,102516.72
2018-01-28T04:24:12.304Z,102519.76
2018-01-28T04:24:35.738Z,102518.93
2018-01-28T04:24:59.473Z,102518.44
2018-01-28T04:25:23.205Z,102518.87
2018-01-28T04:25:46.640Z,102521.95
2018-01-28T04:26:10.383Z,102515.73
2018-01-28T04:26:34.164Z,102518.81
2018-01-28T04:26:58.168Z,102517.92
2018-01-28T04:27:22.008Z,102517.92
2018-01-28T04:27:45.719Z,102519.69
2018-01-28T04:28:09.464Z,102511.75
2018-01-28T04:28:33.187Z,102522.33
2018-01-28T04:28:56.956Z,102517.91
2018-01-28T04:29:20.428Z,102519.22
2018-01-28T04:29:44.145Z,102518.33
2018-01-28T04:30:07.883Z,102515.25
2018-01-28T04:30:31.355Z,102521.37
2018-01-28T04:30:55.080Z,102523.13